Time;durP1;ratioP1;P1;durP2;ratioP2;P2;SDS_P1;SDS_P2;PMS_P1;PMS_P2;Temp;Humidity;BMP_temperature;BMP_pressure;BME280_temperature;BME280_humidity;BME280_pressure;Samples;Min_cycle;Max_cycle;Signal;HPM_P1;HPM_P2
2022/01/15 00:01:34;;;;;;;;;159.00;139.75;;;;;4.16;66.40;102927.91;5062160;28;45380;-80
2022/01/15 00:03:59;;;;;;;;;164.00;139.00;;;;;4.15;67.03;102920.94;5072290;28;45410;-80
2022/01/15 00:06:25;;;;;;;;;141.50;135.00;;;;;4.17;66.54;102919.28;5071465;27;45494;-81
2022/01/15 00:08:50;;;;;;;;;145.75;126.75;;;;;4.15;66.29;102920.94;5068987;28;45556;-80
2022/01/15 00:11:16;;;;;;;;;159.00;137.25;;;;;4.12;66.77;102920.84;5064496;28;45254;-80
2022/01/15 00:13:43;;;;;;;;;151.75;133.75;;;;;4.15;66.59;102920.94;5074904;27;45737;-79
2022/01/15 00:16:25;;;;;;;;;143.50;129.50;;;;;4.12;66.93;102913.06;5061826;28;45421;-79
2022/01/15 00:19:06;;;;;;;;;142.75;132.25;;;;;4.12;66.76;102910.44;5061873;28;46313;-79
2022/01/15 00:21:32;;;;;;;;;144.50;129.00;;;;;4.10;66.27;102914.72;5061938;28;45328;-79
2022/01/15 00:23:57;;;;;;;;;157.50;136.00;;;;;4.12;66.51;102916.53;5069471;28;45305;-80
2022/01/15 00:26:23;;;;;;;;;160.75;137.50;;;;;4.10;66.52;102918.19;5073729;28;45261;-81
2022/01/15 00:28:48;;;;;;;;;156.75;142.25;;;;;4.07;66.79;102907.72;5067005;28;45265;-81
2022/01/15 00:31:14;;;;;;;;;167.67;146.00;;;;;4.08;66.50;102909.47;5080171;28;45333;-81
2022/01/15 00:33:39;;;;;;;;;158.75;139.50;;;;;4.07;66.51;102912.91;5079453;27;45282;-81
2022/01/15 00:36:05;;;;;;;;;162.50;138.50;;;;;4.05;66.22;102905.03;5068309;28;46035;-81
2022/01/15 00:38:30;;;;;;;;;158.00;145.50;;;;;4.07;66.51;102905.09;5066899;27;45278;-80
2022/01/15 00:40:56;;;;;;;;;160.33;142.00;;;;;4.04;66.57;102908.50;5061665;28;45277;-80
2022/01/15 00:43:21;;;;;;;;;155.50;136.00;;;;;4.05;66.50;102902.44;5061874;28;45206;-80
2022/01/15 00:45:47;;;;;;;;;154.25;138.00;;;;;4.02;66.55;102891.06;5070909;28;45361;-82
2022/01/15 00:48:13;;;;;;;;;149.25;131.50;;;;;4.01;66.24;102897.09;5061325;28;45437;-82
2022/01/15 00:50:38;;;;;;;;;159.75;137.25;;;;;3.99;66.64;102894.47;5073102;28;45487;-80
2022/01/15 00:53:04;;;;;;;;;160.00;132.00;;;;;3.99;66.27;102889.25;5081370;28;45298;-80
2022/01/15 00:55:29;;;;;;;;;154.75;135.00;;;;;3.95;66.61;102892.63;5081354;28;45631;-78
2022/01/15 00:57:55;;;;;;;;;156.50;139.25;;;;;3.97;66.22;102892.66;5081504;28;45409;-78
2022/01/15 01:00:22;;;;;;;;;147.00;126.00;;;;;3.93;66.40;102894.25;5081463;28;45392;-78
2022/01/15 01:02:48;;;;;;;;;144.25;128.50;;;;;3.92;66.73;102892.53;5080246;28;45258;-78
2022/01/15 01:05:15;;;;;;;;;136.00;122.00;;;;;3.91;66.25;102881.22;5081418;28;46464;-78
2022/01/15 01:07:40;;;;;;;;;145.75;131.25;;;;;3.90;66.52;102873.38;5081276;28;45314;-78
2022/01/15 01:10:27;;;;;;;;;131.50;115.25;;;;;3.91;66.45;102882.94;5069644;28;45238;-78
2022/01/15 01:13:27;;;;;;;;;143.25;118.75;;;;;3.87;66.81;102873.28;5066798;28;45462;-78
2022/01/15 01:23:37;;;;;;;;;126.75;113.50;;;;;3.82;66.40;102866.22;5060900;28;45361;-77
2022/01/15 01:26:11;;;;;;;;;143.00;117.75;;;;;3.81;66.91;102859.25;5060544;28;45319;-79
2022/01/15 01:28:42;;;;;;;;;136.00;122.00;;;;;3.80;66.56;102867.03;5065459;28;46121;-80
2022/01/15 01:31:15;;;;;;;;;145.25;123.50;;;;;3.80;66.93;102861.81;5079897;28;45510;-80
2022/01/15 01:33:46;;;;;;;;;141.75;122.25;;;;;3.80;66.93;102851.41;5081218;27;45212;-79
2022/01/15 01:36:20;;;;;;;;;131.25;117.75;;;;;3.79;66.59;102854.84;5072177;28;45579;-79
2022/01/15 01:41:16;;;;;;;;;139.25;120.50;;;;;3.78;66.29;102850.47;5071188;28;45390;-79
2022/01/15 01:43:47;;;;;;;;;134.50;119.25;;;;;3.76;66.52;102849.53;5081197;28;45553;-79
2022/01/15 01:48:39;;;;;;;;;138.50;121.50;;;;;3.76;66.66;102854.72;5060332;28;46123;-79
2022/01/15 01:51:08;;;;;;;;;137.50;124.75;;;;;3.74;66.52;102846.91;5060174;28;45363;-79
2022/01/15 01:53:35;;;;;;;;;140.50;122.00;;;;;3.72;66.54;102848.56;5060834;28;45468;-80
2022/01/15 01:56:03;;;;;;;;;139.75;119.50;;;;;3.74;66.72;102848.59;5060034;28;45587;-79
2022/01/15 01:58:28;;;;;;;;;143.75;122.25;;;;;3.71;66.60;102841.59;5060317;28;46570;-79
2022/01/15 02:00:53;;;;;;;;;140.67;125.33;;;;;3.71;66.91;102844.19;5060955;28;45137;-80
2022/01/15 02:03:19;;;;;;;;;153.25;134.25;;;;;3.70;66.78;102842.44;5060147;28;45266;-80
2022/01/15 02:05:44;;;;;;;;;117.67;104.67;;;;;3.71;66.81;102841.59;5069072;28;45570;-80
2022/01/15 02:08:10;;;;;;;;;140.75;122.00;;;;;3.69;66.21;102825.06;5059778;28;46346;-80
2022/01/15 02:10:36;;;;;;;;;151.25;132.75;;;;;3.65;66.46;102824.09;5059915;28;45263;-80
2022/01/15 02:13:01;;;;;;;;;152.25;131.25;;;;;3.65;66.71;102812.81;5060142;28;45264;-79
2022/01/15 02:15:27;;;;;;;;;158.00;131.75;;;;;3.65;66.66;102810.22;5059845;28;45449;-82
2022/01/15 02:17:54;;;;;;;;;148.00;132.75;;;;;3.65;66.51;102812.81;5060025;28;46549;-81
2022/01/15 02:25:42;;;;;;;;;152.25;131.75;;;;;3.64;66.37;102819.72;5079581;28;45388;-83
2022/01/15 02:28:08;;;;;;;;;147.50;131.25;;;;;3.61;66.36;102819.63;5077550;28;45594;-81
2022/01/15 02:30:33;;;;;;;;;153.00;126.75;;;;;3.61;66.78;102819.63;5063264;28;45388;-84
2022/01/15 02:32:59;;;;;;;;;150.50;126.00;;;;;3.61;66.73;102819.63;5060044;28;45417;-84
2022/01/15 02:35:24;;;;;;;;;147.67;131.67;;;;;3.58;66.31;102817.81;5059734;28;45181;-78
2022/01/15 02:37:49;;;;;;;;;141.00;126.67;;;;;3.57;66.78;102815.19;5059858;28;45482;-80
2022/01/15 02:40:15;;;;;;;;;139.00;122.67;;;;;3.57;66.90;102823.88;5059571;28;45175;-80
2022/01/15 02:42:40;;;;;;;;;146.75;129.75;;;;;3.57;66.50;102818.66;5060108;28;45266;-80
2022/01/15 02:45:08;;;;;;;;;142.25;124.25;;;;;3.53;66.91;102811.59;5059844;28;45235;-80
2022/01/15 02:50:22;;;;;;;;;157.75;138.25;;;;;3.55;66.35;102814.25;5059333;28;45576;-80
2022/01/15 02:52:47;;;;;;;;;143.00;129.75;;;;;3.53;66.83;102808.13;5060263;28;45159;-80
2022/01/15 02:55:13;;;;;;;;;151.00;130.75;;;;;3.51;66.45;102802.00;5075889;28;45402;-80
2022/01/15 02:57:38;;;;;;;;;134.50;116.75;;;;;3.48;66.39;102800.19;5066903;28;46387;-80
2022/01/15 03:00:05;;;;;;;;;155.00;127.67;;;;;3.49;66.50;102799.34;5059290;28;45211;-80
2022/01/15 03:02:33;;;;;;;;;154.75;129.50;;;;;3.46;67.05;102786.25;5059339;28;45295;-80
2022/01/15 03:04:59;;;;;;;;;132.25;111.50;;;;;3.45;67.03;102792.28;5059427;28;45592;-80
2022/01/15 03:07:25;;;;;;;;;138.50;125.50;;;;;3.44;66.47;102791.41;5059300;28;45421;-80
2022/01/15 03:09:50;;;;;;;;;157.25;137.50;;;;;3.42;66.95;102787.88;5071530;28;45314;-80
2022/01/15 03:12:16;;;;;;;;;174.00;150.33;;;;;3.43;67.19;102783.56;5059555;28;45308;-81
2022/01/15 03:14:42;;;;;;;;;164.00;145.50;;;;;3.41;66.93;102775.72;5067110;28;45430;-81
2022/01/15 03:17:08;;;;;;;;;174.00;147.75;;;;;3.41;67.03;102780.91;5059097;28;45390;-81
2022/01/15 03:19:33;;;;;;;;;160.00;143.75;;;;;3.42;66.43;102776.59;5066607;28;45444;-81
2022/01/15 03:21:58;;;;;;;;;178.67;152.33;;;;;3.42;67.12;102787.88;5068577;28;46128;-81
2022/01/15 03:24:24;;;;;;;;;173.00;153.67;;;;;3.43;66.78;102775.78;5071622;28;46213;-81
2022/01/15 03:26:49;;;;;;;;;177.33;154.00;;;;;3.42;67.41;102776.59;5063033;27;46343;-81
2022/01/15 03:29:15;;;;;;;;;176.50;152.75;;;;;3.40;67.08;102770.47;5067624;28;45702;-81
2022/01/15 03:31:40;;;;;;;;;173.50;154.00;;;;;3.42;67.26;102772.28;5079481;28;45294;-81
2022/01/15 03:34:05;;;;;;;;;174.50;154.00;;;;;3.42;67.40;102767.09;5078521;28;45404;-82
2022/01/15 03:36:31;;;;;;;;;162.67;147.67;;;;;3.41;67.55;102757.50;5079141;27;46267;-76
2022/01/15 03:38:56;;;;;;;;;176.25;148.75;;;;;3.41;66.49;102762.69;5079161;28;45206;-77
2022/01/15 03:41:22;;;;;;;;;167.33;148.33;;;;;3.43;67.51;102766.22;5079302;28;45219;-77
2022/01/15 03:43:47;;;;;;;;;180.25;150.75;;;;;3.42;67.15;102761.00;5078372;28;45421;-77
2022/01/15 03:46:12;;;;;;;;;183.50;160.50;;;;;3.39;66.83;102756.59;5078842;28;45453;-79
2022/01/15 03:48:38;;;;;;;;;185.33;150.67;;;;;3.38;66.60;102754.84;5058741;28;45619;-79
2022/01/15 03:51:03;;;;;;;;;175.25;152.25;;;;;3.37;66.32;102746.16;5058783;28;45338;-80
2022/01/15 03:53:29;;;;;;;;;169.25;150.50;;;;;3.34;66.90;102740.84;5061691;28;45575;-79
2022/01/15 03:55:54;;;;;;;;;171.25;150.00;;;;;3.36;66.52;102740.88;5067081;28;47365;-81
2022/01/15 03:58:20;;;;;;;;;163.25;142.00;;;;;3.34;66.42;102743.44;5058756;28;45355;-81
2022/01/15 04:00:45;;;;;;;;;168.25;143.00;;;;;3.33;67.08;102736.50;5058864;28;45439;-80
2022/01/15 04:03:11;;;;;;;;;162.00;145.50;;;;;3.33;66.95;102736.50;5058905;28;45528;-78
2022/01/15 04:05:36;;;;;;;;;157.33;133.33;;;;;3.33;67.24;102731.31;5082279;27;45306;-80
2022/01/15 04:08:02;;;;;;;;;165.00;146.00;;;;;3.32;66.43;102729.53;5074443;28;45265;-77
2022/01/15 04:10:28;;;;;;;;;177.50;154.75;;;;;3.32;67.18;102721.72;5061894;28;45305;-77
2022/01/15 04:12:53;;;;;;;;;144.00;125.75;;;;;3.31;67.16;102727.75;5062082;28;45481;-77
2022/01/15 04:15:20;;;;;;;;;165.67;145.00;;;;;3.30;66.95;102719.91;5061747;28;46438;-78
2022/01/15 04:17:48;;;;;;;;;167.75;144.75;;;;;3.31;67.18;102725.16;5067736;28;45288;-79
2022/01/15 04:20:20;;;;;;;;;166.75;142.50;;;;;3.28;66.86;102719.88;5062816;27;45425;-79
2022/01/15 04:22:46;;;;;;;;;159.75;134.25;;;;;3.28;67.30;102714.69;5061935;28;45369;-79
2022/01/15 04:25:11;;;;;;;;;157.25;135.00;;;;;3.27;67.11;102715.50;5061296;28;45682;-77
2022/01/15 04:27:38;;;;;;;;;162.50;142.75;;;;;3.26;66.91;102717.22;5061443;28;45512;-77
2022/01/15 04:30:06;;;;;;;;;152.50;129.50;;;;;3.29;67.36;102719.03;5061646;28;45437;-77
2022/01/15 04:32:31;;;;;;;;;165.00;145.00;;;;;3.25;67.35;102704.19;5072243;28;45750;-79
2022/01/15 04:34:58;;;;;;;;;156.33;137.00;;;;;3.26;67.54;102709.44;5071258;28;46393;-78
2022/01/15 04:37:31;;;;;;;;;154.50;137.75;;;;;3.27;66.63;102705.13;5061581;28;45240;-78
2022/01/15 04:39:56;;;;;;;;;161.75;142.75;;;;;3.26;67.12;102700.72;5061280;28;45354;-78
2022/01/15 04:42:25;;;;;;;;;147.00;133.00;;;;;3.28;67.37;102701.69;5062062;27;45220;-79
2022/01/15 04:44:50;;;;;;;;;158.50;135.00;;;;;3.27;67.50;102697.31;5061398;28;45271;-79
2022/01/15 04:47:15;;;;;;;;;170.50;143.50;;;;;3.26;67.23;102698.13;5071140;28;45292;-79
2022/01/15 04:49:41;;;;;;;;;151.25;136.00;;;;;3.26;67.01;102695.53;5075197;28;45361;-79
2022/01/15 04:52:06;;;;;;;;;161.75;139.25;;;;;3.24;66.93;102692.00;5062427;28;45449;-77
2022/01/15 04:54:33;;;;;;;;;148.50;129.00;;;;;3.26;67.55;102703.34;5074585;28;45282;-77
2022/01/15 04:56:58;;;;;;;;;159.50;143.50;;;;;3.21;66.62;102686.75;5064888;27;45623;-78
2022/01/15 04:59:24;;;;;;;;;157.75;145.00;;;;;3.21;67.11;102685.00;5075172;27;45420;-78
2022/01/15 05:01:50;;;;;;;;;143.67;119.67;;;;;3.25;66.63;102691.19;5064712;28;45290;-77
2022/01/15 05:04:16;;;;;;;;;168.75;145.00;;;;;3.21;66.66;102691.94;5063124;28;46227;-77
2022/01/15 05:06:41;;;;;;;;;161.75;142.00;;;;;3.22;66.99;102691.09;5065482;28;45382;-76
2022/01/15 05:09:07;;;;;;;;;166.50;141.75;;;;;3.21;66.91;102695.41;5075219;28;45330;-80
2022/01/15 05:11:47;;;;;;;;;165.25;142.50;;;;;3.20;67.34;102687.56;5067952;28;45985;-76
2022/01/15 05:14:16;;;;;;;;;165.00;144.00;;;;;3.21;66.94;102686.75;5061559;27;46126;-79
2022/01/15 05:16:41;;;;;;;;;164.00;145.50;;;;;3.22;67.18;102688.50;5065493;28;45827;-78
2022/01/15 05:19:07;;;;;;;;;158.75;144.50;;;;;3.18;66.32;102684.06;5059885;28;45342;-79
2022/01/15 05:21:32;;;;;;;;;167.25;137.50;;;;;3.18;67.12;102679.75;5059387;28;46533;-80
2022/01/15 05:23:58;;;;;;;;;155.75;135.00;;;;;3.17;66.80;102671.88;5077948;28;46454;-80
2022/01/15 05:26:23;;;;;;;;;159.00;137.25;;;;;3.17;67.23;102675.38;5068908;27;45548;-80
2022/01/15 05:28:48;;;;;;;;;147.25;132.50;;;;;3.17;66.37;102683.16;5068849;28;45288;-80
2022/01/15 05:31:14;;;;;;;;;161.00;140.67;;;;;3.15;67.07;102679.66;5060682;28;45388;-79
2022/01/15 05:33:39;;;;;;;;;153.50;133.50;;;;;3.17;67.04;102687.47;5060499;28;45532;-78
2022/01/15 05:36:05;;;;;;;;;162.67;140.67;;;;;3.13;65.96;102687.41;5060738;28;45128;-79
2022/01/15 05:38:30;;;;;;;;;165.50;138.25;;;;;3.13;66.20;102687.41;5060794;28;45495;-80
2022/01/15 05:40:55;;;;;;;;;153.00;136.25;;;;;3.12;66.76;102683.03;5060249;28;45235;-79
2022/01/15 05:43:21;;;;;;;;;82.50;61.75;;;;;3.11;67.21;102683.00;5060513;28;46595;-79
2022/01/15 05:45:46;;;;;;;;;157.25;133.00;;;;;3.11;66.73;102690.78;5068407;28;45642;-78
2022/01/15 05:48:12;;;;;;;;;164.75;140.75;;;;;3.07;66.71;102687.22;5060981;28;45266;-78
2022/01/15 05:50:37;;;;;;;;;136.75;117.00;;;;;3.04;66.97;102688.00;5060140;28;45633;-78
2022/01/15 05:53:03;;;;;;;;;154.50;134.00;;;;;3.03;66.75;102686.25;5063950;28;46954;-79
2022/01/15 05:55:28;;;;;;;;;156.50;139.75;;;;;3.02;66.86;102684.47;5063822;27;45340;-79
2022/01/15 05:57:54;;;;;;;;;165.33;139.67;;;;;3.03;66.94;102688.84;5062248;28;45417;-78
2022/01/15 06:00:19;;;;;;;;;154.50;136.00;;;;;3.00;66.83;102690.47;5060191;28;45385;-78
2022/01/15 06:02:44;;;;;;;;;159.00;140.25;;;;;3.02;66.67;102699.16;5060201;28;46153;-79
2022/01/15 06:05:10;;;;;;;;;141.67;128.00;;;;;3.01;66.83;102698.28;5060059;28;45424;-78
2022/01/15 06:07:36;;;;;;;;;156.75;138.00;;;;;3.01;67.24;102692.22;5060226;28;45630;-78
2022/01/15 06:10:02;;;;;;;;;159.50;139.75;;;;;3.00;66.86;102691.34;5060295;28;45464;-78
2022/01/15 06:12:30;;;;;;;;;163.25;143.75;;;;;3.01;66.50;102697.44;5058515;28;46459;-78
2022/01/15 06:14:56;;;;;;;;;157.25;139.25;;;;;3.01;66.56;102700.03;5060198;28;45273;-78
2022/01/15 06:17:22;;;;;;;;;160.25;139.00;;;;;3.03;67.10;102700.94;5060038;28;45142;-79
2022/01/15 06:19:47;;;;;;;;;160.00;141.67;;;;;3.02;66.93;102706.97;5059991;28;45649;-78
2022/01/15 06:22:12;;;;;;;;;163.00;144.33;;;;;2.99;66.37;102699.06;5059928;28;46187;-78
2022/01/15 06:24:38;;;;;;;;;172.33;141.00;;;;;2.99;66.90;102691.28;5060005;28;45771;-77
2022/01/15 06:27:04;;;;;;;;;151.50;133.00;;;;;2.98;66.83;102698.22;5066721;28;45512;-77
2022/01/15 06:29:29;;;;;;;;;165.25;142.00;;;;;2.98;67.10;102685.22;5071689;28;45565;-78
2022/01/15 06:31:54;;;;;;;;;162.00;136.33;;;;;2.98;66.95;102689.53;5065346;28;46338;-76
2022/01/15 06:34:20;;;;;;;;;159.25;134.50;;;;;2.97;66.61;102686.03;5059710;28;45267;-77
2022/01/15 06:36:46;;;;;;;;;160.25;136.00;;;;;2.94;67.63;102682.50;5059792;28;45367;-76
2022/01/15 06:39:11;;;;;;;;;149.75;131.75;;;;;2.95;66.83;102682.53;5059427;28;45550;-76
2022/01/15 06:41:37;;;;;;;;;159.50;134.25;;;;;2.92;67.04;102672.91;5059821;28;45409;-76
2022/01/15 06:44:02;;;;;;;;;157.25;136.25;;;;;2.96;66.47;102678.22;5059708;28;45212;-76
2022/01/15 06:46:28;;;;;;;;;148.50;135.50;;;;;2.94;66.99;102680.75;5072082;28;45181;-78
2022/01/15 06:48:53;;;;;;;;;157.33;135.33;;;;;2.95;67.35;102681.63;5059652;28;45458;-79
2022/01/15 06:51:18;;;;;;;;;144.00;127.67;;;;;2.96;67.04;102681.69;5065369;28;45534;-78
2022/01/15 06:53:44;;;;;;;;;156.25;135.00;;;;;2.94;67.05;102680.75;5066433;27;45271;-79
2022/01/15 06:56:09;;;;;;;;;153.67;131.00;;;;;2.96;66.53;102678.22;5059581;28;45493;-79
2022/01/15 06:58:35;;;;;;;;;150.67;138.67;;;;;2.95;67.08;102679.03;5059883;28;45363;-79
2022/01/15 07:01:00;;;;;;;;;160.75;136.25;;;;;2.95;67.36;102671.25;5074132;28;45187;-79
2022/01/15 07:03:25;;;;;;;;;154.50;128.25;;;;;2.94;66.88;102664.31;5079836;28;45195;-77
2022/01/15 07:05:51;;;;;;;;;150.67;131.00;;;;;2.95;67.12;102666.06;5078294;28;45486;-80
2022/01/15 07:08:16;;;;;;;;;154.75;135.25;;;;;2.96;66.86;102663.53;5063078;28;45253;-76
2022/01/15 07:10:43;;;;;;;;;144.67;131.00;;;;;2.93;67.17;102655.63;5059062;28;45612;-76
2022/01/15 07:13:09;;;;;;;;;151.00;128.50;;;;;2.96;66.48;102658.31;5062634;28;45404;-80
2022/01/15 07:15:34;;;;;;;;;147.25;133.25;;;;;2.95;67.26;102656.53;5067080;28;45477;-81
2022/01/15 07:18:00;;;;;;;;;149.75;141.00;;;;;2.96;67.45;102647.03;5066111;28;45299;-81
2022/01/15 07:20:26;;;;;;;;;154.25;130.75;;;;;2.95;67.21;102651.34;5071580;27;45491;-76
2022/01/15 07:22:52;;;;;;;;;148.50;130.25;;;;;2.96;67.61;102650.53;5068601;27;45247;-76
2022/01/15 07:25:17;;;;;;;;;157.75;133.00;;;;;2.98;67.28;102655.75;5058725;28;45480;-76
2022/01/15 07:27:43;;;;;;;;;138.50;125.00;;;;;2.95;67.77;102650.47;5058833;28;45203;-76
2022/01/15 07:30:11;;;;;;;;;151.75;131.50;;;;;2.96;67.05;102649.63;5070379;28;45563;-76
2022/01/15 07:32:37;;;;;;;;;138.25;125.50;;;;;2.97;67.34;102648.78;5077493;27;45167;-75
2022/01/15 07:35:04;;;;;;;;;151.25;133.25;;;;;2.96;67.47;102654.84;5079249;27;45484;-76
2022/01/15 07:37:31;;;;;;;;;148.00;136.25;;;;;2.95;67.15;102646.16;5079594;28;45302;-77
2022/01/15 07:39:57;;;;;;;;;147.75;131.00;;;;;2.96;66.94;102641.84;5078318;28;45266;-77
2022/01/15 07:42:23;;;;;;;;;161.75;136.50;;;;;2.97;66.95;102647.06;5081132;27;45426;-76
2022/01/15 07:44:48;;;;;;;;;150.25;130.50;;;;;3.01;67.16;102645.47;5060849;28;45441;-76
2022/01/15 07:47:14;;;;;;;;;148.33;130.33;;;;;2.99;67.13;102647.09;5077303;28;45544;-76
2022/01/15 07:49:40;;;;;;;;;150.25;130.00;;;;;2.98;67.42;102647.97;5077659;28;46422;-76
2022/01/15 07:52:05;;;;;;;;;145.50;123.75;;;;;3.00;67.81;102648.88;5079512;27;45172;-76
2022/01/15 07:54:31;;;;;;;;;147.25;127.25;;;;;2.96;67.35;102641.84;5075105;28;45350;-76
2022/01/15 07:56:58;;;;;;;;;153.25;130.00;;;;;2.97;67.03;102643.59;5070319;27;45567;-76
2022/01/15 07:59:25;;;;;;;;;141.50;126.25;;;;;2.99;67.81;102645.41;5074280;28;45538;-76
2022/01/15 08:01:50;;;;;;;;;156.25;125.50;;;;;2.97;67.12;102646.19;5077763;28;45364;-78
2022/01/15 08:04:16;;;;;;;;;140.00;126.00;;;;;3.00;67.16;102654.09;5076185;27;46410;-77
2022/01/15 08:06:41;;;;;;;;;153.00;132.50;;;;;2.99;67.53;102648.00;5077642;28;47166;-77
2022/01/15 08:09:08;;;;;;;;;149.75;130.00;;;;;2.99;67.45;102644.50;5077048;27;45402;-78
2022/01/15 08:11:34;;;;;;;;;141.25;124.00;;;;;3.00;67.28;102641.09;5078372;28;45370;-78
2022/01/15 08:13:59;;;;;;;;;163.25;135.00;;;;;3.02;67.42;102639.41;5076680;28;45409;-78
2022/01/15 08:16:25;;;;;;;;;151.75;130.75;;;;;3.02;67.24;102644.59;5076562;27;45661;-77
2022/01/15 08:18:50;;;;;;;;;144.25;129.25;;;;;3.04;67.61;102640.34;5073509;28;45452;-78
2022/01/15 08:21:16;;;;;;;;;141.50;132.75;;;;;3.04;67.43;102640.34;5078132;27;45267;-77
2022/01/15 08:23:41;;;;;;;;;139.00;122.00;;;;;3.04;67.59;102632.53;5076333;27;45246;-77
2022/01/15 08:26:07;;;;;;;;;146.00;133.00;;;;;3.06;67.39;102638.69;5069575;28;45427;-76
2022/01/15 08:28:32;;;;;;;;;143.25;125.50;;;;;3.07;67.14;102635.25;5065124;28;46183;-75
2022/01/15 08:30:58;;;;;;;;;145.75;131.50;;;;;3.09;67.52;102632.66;5079783;28;45341;-75
2022/01/15 08:33:23;;;;;;;;;146.25;131.25;;;;;3.08;67.87;102630.94;5079060;28;45559;-75
2022/01/15 08:35:49;;;;;;;;;152.00;130.75;;;;;3.11;67.46;102641.41;5067109;27;45464;-75
2022/01/15 08:38:14;;;;;;;;;157.33;128.67;;;;;3.12;67.79;102632.78;5080497;28;47448;-75
2022/01/15 08:40:40;;;;;;;;;144.75;128.00;;;;;3.11;67.70;102629.28;5064787;27;45751;-75
2022/01/15 08:43:05;;;;;;;;;155.25;134.75;;;;;3.13;67.92;102637.16;5061753;28;45453;-75
2022/01/15 08:45:31;;;;;;;;;143.00;128.75;;;;;3.18;68.23;102637.28;5066493;28;45667;-75
2022/01/15 08:47:57;;;;;;;;;154.75;135.25;;;;;3.19;68.32;102628.63;5070942;27;45574;-75
2022/01/15 08:50:23;;;;;;;;;155.75;130.00;;;;;3.20;67.85;102630.41;5067998;28;45452;-75
2022/01/15 08:52:49;;;;;;;;;143.50;121.25;;;;;3.20;67.99;102630.41;5064511;28;45473;-75
2022/01/15 08:55:15;;;;;;;;;161.50;140.50;;;;;3.24;67.77;102642.63;5076492;27;45262;-75
2022/01/15 08:57:42;;;;;;;;;147.25;134.50;;;;;3.25;67.92;102644.41;5066643;27;45320;-75
2022/01/15 09:00:11;;;;;;;;;138.25;125.25;;;;;3.30;68.29;102649.75;5061433;28;45425;-75
2022/01/15 09:02:37;;;;;;;;;150.50;134.50;;;;;3.30;67.52;102655.81;5069776;28;45464;-75
2022/01/15 09:05:03;;;;;;;;;158.75;140.25;;;;;3.32;67.98;102646.34;5061041;28;45287;-75
2022/01/15 09:07:28;;;;;;;;;161.25;137.25;;;;;3.34;68.00;102642.06;5060886;27;47516;-75
2022/01/15 09:09:54;;;;;;;;;171.00;143.33;;;;;3.37;67.86;102646.47;5061994;28;45446;-75
2022/01/15 09:12:22;;;;;;;;;140.67;125.33;;;;;3.40;67.72;102649.16;5068230;28;45267;-75
2022/01/15 09:14:52;;;;;;;;;154.75;137.00;;;;;3.42;68.29;102652.69;5067389;28;45675;-75
2022/01/15 09:17:19;;;;;;;;;155.50;133.50;;;;;3.45;68.24;102652.78;5068099;27;46152;-75
2022/01/15 09:19:44;;;;;;;;;156.00;136.75;;;;;3.47;67.61;102653.69;5072186;28;45271;-75
2022/01/15 09:22:11;;;;;;;;;147.33;131.33;;;;;3.51;68.28;102648.59;5061111;28;45324;-75
2022/01/15 09:24:37;;;;;;;;;169.00;144.25;;;;;3.55;68.25;102650.44;5067774;28;45734;-75
2022/01/15 09:30:12;;;;;;;;;157.50;139.75;;;;;3.55;68.22;102643.53;5063620;28;45401;-78
2022/01/15 09:32:32;;;;;;;;;148.25;135.00;;;;;3.64;67.79;102647.19;5064905;28;45300;-78
2022/01/15 09:34:57;;;;;;;;;164.00;139.33;;;;;3.67;68.44;102648.16;5064002;27;45504;-78
2022/01/15 09:37:23;;;;;;;;;158.00;138.33;;;;;3.72;68.67;102650.88;5072457;28;45412;-78
2022/01/15 09:39:50;;;;;;;;;161.50;142.50;;;;;3.79;68.25;102654.53;5065576;28;45393;-78
2022/01/15 09:42:16;;;;;;;;;163.25;146.25;;;;;3.81;68.47;102653.72;5079821;28;45413;-78
2022/01/15 09:44:42;;;;;;;;;157.00;138.75;;;;;3.88;68.31;102657.38;5073275;28;45492;-78
2022/01/15 09:47:11;;;;;;;;;157.25;137.00;;;;;3.90;68.42;102657.44;5063666;27;46425;-76
2022/01/15 09:49:37;;;;;;;;;164.00;145.50;;;;;3.95;68.08;102653.22;5060182;28;45534;-76
2022/01/15 09:52:03;;;;;;;;;161.75;143.50;;;;;3.96;68.60;102647.16;5060566;28;45369;-76
2022/01/15 09:54:29;;;;;;;;;148.25;134.75;;;;;4.03;68.06;102656.88;5063229;28;45596;-76
2022/01/15 09:56:55;;;;;;;;;169.75;143.25;;;;;4.07;68.34;102652.66;5064545;28;46471;-76
2022/01/15 09:59:21;;;;;;;;;140.33;125.67;;;;;4.11;68.07;102653.59;5058974;28;46273;-76
2022/01/15 10:01:47;;;;;;;;;160.75;143.25;;;;;4.15;68.67;102647.63;5065506;28;45291;-76
2022/01/15 10:04:13;;;;;;;;;150.00;135.75;;;;;4.16;68.39;102652.88;5074899;28;45642;-76
2022/01/15 10:07:04;;;;;;;;;154.25;132.75;;;;;4.22;68.46;102649.53;5061817;27;45486;-76
2022/01/15 10:09:30;;;;;;;;;155.25;137.25;;;;;4.23;68.60;102643.50;5061696;27;45391;-77
2022/01/15 10:11:55;;;;;;;;;152.50;134.50;;;;;4.29;68.60;102647.97;5065036;28;45627;-76
2022/01/15 10:14:32;;;;;;;;;145.00;129.67;;;;;4.34;68.57;102642.88;5067473;27;45288;-76
2022/01/15 10:17:00;;;;;;;;;157.00;132.50;;;;;4.36;68.72;102628.16;5060037;28;45706;-76
2022/01/15 10:19:35;;;;;;;;;150.25;127.75;;;;;4.41;68.66;102631.75;5059689;28;45396;-76
2022/01/15 10:22:13;;;;;;;;;143.75;124.50;;;;;4.43;68.40;102631.78;5059578;28;45299;-76
2022/01/15 10:24:40;;;;;;;;;133.75;123.25;;;;;4.49;68.86;102640.63;5080117;27;45310;-76
2022/01/15 10:27:31;;;;;;;;;139.50;122.25;;;;;4.56;68.65;102643.38;5079757;27;45563;-76
2022/01/15 10:30:15;;;;;;;;;144.00;124.00;;;;;4.58;68.76;102633.88;5063142;28;45467;-76
2022/01/15 10:33:09;;;;;;;;;139.50;126.00;;;;;4.61;68.88;102628.75;5060035;28;45362;-76
2022/01/15 10:35:39;;;;;;;;;146.75;130.50;;;;;4.67;68.35;102623.66;5059711;28;45448;-76
2022/01/15 10:38:13;;;;;;;;;138.75;129.75;;;;;4.68;68.13;102616.72;5059689;28;45421;-76
2022/01/15 10:40:40;;;;;;;;;144.50;128.00;;;;;4.76;68.82;102612.59;5059541;28;45592;-76
2022/01/15 10:43:06;;;;;;;;;126.25;114.00;;;;;4.81;68.56;102610.97;5067637;28;45333;-76
2022/01/15 10:45:34;;;;;;;;;140.75;121.00;;;;;4.82;68.70;102606.59;5066069;28;45366;-76
2022/01/15 10:48:02;;;;;;;;;142.00;126.50;;;;;4.87;68.73;102611.91;5079847;28;45454;-77
2022/01/15 10:50:29;;;;;;;;;139.50;121.75;;;;;4.93;68.72;102610.34;5079697;28;45472;-77
2022/01/15 10:52:56;;;;;;;;;133.25;114.25;;;;;4.94;68.48;102601.66;5060858;28;45234;-77
2022/01/15 10:55:26;;;;;;;;;133.50;117.25;;;;;4.98;68.42;102605.22;5059183;28;46135;-77
2022/01/15 10:58:01;;;;;;;;;135.00;116.25;;;;;5.01;68.65;102601.78;5061627;28;45449;-77
2022/01/15 11:00:28;;;;;;;;;133.25;115.75;;;;;5.03;68.56;102594.88;5059431;28;45220;-77
2022/01/15 11:02:58;;;;;;;;;137.25;114.50;;;;;5.11;68.48;102605.47;5059597;28;45291;-77
2022/01/15 11:05:33;;;;;;;;;138.50;122.50;;;;;5.13;68.49;102601.16;5059393;28;45740;-77
2022/01/15 11:08:05;;;;;;;;;137.00;119.75;;;;;5.16;68.39;102596.88;5059579;28;45305;-77
2022/01/15 11:10:40;;;;;;;;;148.00;128.50;;;;;5.21;68.69;102588.28;5059082;28;45604;-77
2022/01/15 11:13:10;;;;;;;;;143.50;124.50;;;;;5.24;68.55;102594.41;5060747;28;45334;-77
2022/01/15 11:15:35;;;;;;;;;146.00;129.50;;;;;5.27;68.67;102591.00;5062955;28;45443;-77
2022/01/15 11:18:03;;;;;;;;;148.50;128.75;;;;;5.34;68.79;102589.38;5062916;28;45600;-77
2022/01/15 11:20:32;;;;;;;;;141.00;128.00;;;;;5.36;68.70;102583.34;5062774;28;45418;-77
2022/01/15 11:23:01;;;;;;;;;148.25;131.00;;;;;5.43;68.65;102586.97;5063065;28;45181;-77
2022/01/15 11:25:27;;;;;;;;;119.00;104.25;;;;;5.45;67.97;102586.97;5062463;28;45500;-77